Sanpo Maru No.5 — JL6343 — position and weather

sailwx.info

Track history (hours):
 
Tides and Currents Weather Stations Pressure Air Temp Water Temp Dewpoint Dewpoint Depression Visibility Wind Speed Wind Dir Waves Ship Positions

Sanpo Maru No.5

Last reported at 2016-Jul-24 02:33 UTC. Time now 2016-Jul-24 02:57 UTC.
Position N 35°31' E 139°59'.

Length 71 m; draft 4.2 m.

Type: Ship. MMSI: 431500283.

Date/timePositionNaut miles runAvg speedWind from/ knotsBaromVisibWave heightAir tempDewpointWater temp
2016-Jul-24 02:33N 35°31' E 139°59'3 2.9
2016-Jul-24 01:33N 35°30' E 140°02'0 0.0
2016-Jul-24 00:33N 35°30' E 140°02'0 0.0
2016-Jul-23 23:33N 35°30' E 140°02'2 2.1
2016-Jul-23 22:33N 35°31' E 139°60'0 0.0
2016-Jul-23 21:33N 35°31' E 139°60'0 0.0
2016-Jul-23 20:33N 35°31' E 139°60'0 0.0
2016-Jul-23 19:34N 35°31' E 139°60'0 0.0
2016-Jul-23 18:34N 35°31' E 139°60'0 0.0
2016-Jul-23 17:34N 35°31' E 139°60'0 0.0
2016-Jul-23 16:34N 35°31' E 139°60'0 0.0
2016-Jul-23 15:27N 35°31' E 139°60'0 0.0
2016-Jul-23 14:33N 35°31' E 139°60'0 0.0
2016-Jul-23 13:33N 35°31' E 139°60'0 0.0
2016-Jul-23 12:15N 35°31' E 139°60'0 0.0
2016-Jul-23 11:33N 35°31' E 139°60'0 0.0
2016-Jul-23 10:33N 35°31' E 139°60'0 0.0
2016-Jul-23 09:33N 35°31' E 139°60'0 0.0
2016-Jul-23 08:33N 35°31' E 139°60'0 0.0
2016-Jul-23 07:33N 35°31' E 139°60'0 0.0
2016-Jul-23 06:33N 35°31' E 139°60'8 4.2
2016-Jul-23 04:34N 35°35' E 139°51'2 2.1
2016-Jul-23 03:33N 35°37' E 139°50'0 0.0
2016-Jul-23 02:33N 35°37' E 139°50'2 2.3
2016-Jul-23 01:33N 35°35' E 139°52'0 0.0
2016-Jul-23 00:29N 35°36' E 139°52'0 0.0
2016-Jul-22 23:32N 35°35' E 139°52'0 0.0
2016-Jul-22 22:26N 35°35' E 139°52'0 0.1
2016-Jul-22 21:32N 35°36' E 139°52'0 0.1
2016-Jul-22 20:32N 35°36' E 139°52'0 0.0
2016-Jul-22 19:23N 35°36' E 139°52'0 0.0
2016-Jul-22 18:29N 35°36' E 139°52'0 0.0
2016-Jul-22 17:32N 35°36' E 139°52'0 0.1
2016-Jul-22 16:29N 35°35' E 139°52'0 0.1
2016-Jul-22 15:29N 35°35' E 139°52'0 0.0
2016-Jul-22 14:26N 35°35' E 139°52'0 0.0
2016-Jul-22 13:26N 35°35' E 139°52'0 0.1
2016-Jul-22 12:32N 35°36' E 139°51'0 0.0
2016-Jul-22 11:29N 35°36' E 139°51'5 5.7
2016-Jul-22 10:33N 35°33' E 139°57'5 4.9
2016-Jul-22 09:33N 35°30' E 140°02'0 0.0
2016-Jul-22 08:33N 35°30' E 140°02'0 0.0
2016-Jul-22 07:33N 35°30' E 140°02'2 1.1
2016-Jul-22 05:33N 35°31' E 139°60'0 0.0
2016-Jul-22 04:33N 35°31' E 139°60'5 5.4
2016-Jul-22 03:33N 35°34' E 139°54'5 4.9
2016-Jul-22 02:33N 35°37' E 139°50'0 0.0
2016-Jul-22 01:33N 35°37' E 139°50'1 0.8
2016-Jul-22 00:33N 35°36' E 139°50'2 1.6
2016-Jul-21 23:32N 35°36' E 139°51'0 0.0
2016-Jul-21 22:32N 35°36' E 139°51'0 0.0
2016-Jul-21 21:32N 35°36' E 139°51'0 0.0
2016-Jul-21 20:32N 35°36' E 139°51'0 0.0
2016-Jul-21 19:32N 35°36' E 139°51'0 0.0
2016-Jul-21 18:32N 35°36' E 139°51'0 0.0
2016-Jul-21 17:32N 35°36' E 139°52'0 0.0
2016-Jul-21 16:32N 35°36' E 139°51'0 0.0
2016-Jul-21 15:32N 35°36' E 139°51'0 0.0
2016-Jul-21 14:29N 35°36' E 139°51'0 0.0
2016-Jul-21 13:32N 35°36' E 139°51'0 0.0
2016-Jul-21 12:32N 35°36' E 139°51'0 0.0
2016-Jul-21 11:32N 35°36' E 139°51'0 0.0
2016-Jul-21 10:32N 35°36' E 139°51'0 0.0
2016-Jul-21 09:32N 35°36' E 139°51'4 4.0
2016-Jul-21 08:34N 35°33' E 139°55'6 6.3
2016-Jul-21 07:33N 35°30' E 140°02'0 0.0
2016-Jul-21 06:33N 35°30' E 140°02'0 0.0
2016-Jul-21 05:33N 35°30' E 140°02'0 0.0
2016-Jul-21 04:33N 35°30' E 140°02'2 1.7
2016-Jul-21 03:33N 35°31' E 140°00'1 1.0
2016-Jul-21 02:28N 35°31' E 139°59'0 0.0
2016-Jul-21 01:28N 35°31' E 139°59'0 0.0
2016-Jul-21 00:28N 35°31' E 139°59'0 0.0
2016-Jul-20 23:28N 35°31' E 139°59'0 0.0
2016-Jul-20 22:28N 35°31' E 139°59'0 0.0
2016-Jul-20 21:28N 35°31' E 139°59'0 0.0
2016-Jul-20 20:28N 35°31' E 139°59'0 0.0
2016-Jul-20 19:28N 35°31' E 139°59'0 0.0
2016-Jul-20 18:28N 35°31' E 139°59'0 0.0
2016-Jul-20 17:28N 35°31' E 139°59'0 0.0
2016-Jul-20 16:28N 35°31' E 139°59'0 0.0
2016-Jul-20 15:16N 35°31' E 139°59'0 0.0
2016-Jul-20 14:28N 35°31' E 139°59'0 0.0
2016-Jul-20 13:28N 35°31' E 139°59'0 0.0
2016-Jul-20 12:28N 35°31' E 139°59'0 0.0
2016-Jul-20 11:28N 35°31' E 139°59'0 0.0
2016-Jul-20 10:22N 35°31' E 139°59'0 0.0
2016-Jul-20 09:22N 35°31' E 139°59'0 0.0
2016-Jul-20 08:28N 35°31' E 139°59'0 0.0
2016-Jul-20 07:28N 35°31' E 139°59'0 0.0
2016-Jul-20 06:33N 35°31' E 139°59'0 0.0
2016-Jul-20 05:33N 35°31' E 139°59'0 0.0
2016-Jul-20 04:32N 35°31' E 139°59'0 0.0
2016-Jul-20 03:32N 35°31' E 139°59'9 9.4
2016-Jul-20 02:33N 35°27' E 139°49'10 9.9
2016-Jul-20 01:33N 35°17' E 139°45'1010.2
2016-Jul-20 00:33N 35°07' E 139°46'1110.9
2016-Jul-19 23:33N 34°56' E 139°45'14 9.7
2016-Jul-19 22:05N 34°55' E 140°02'611.6
2016-Jul-19 21:33N 34°59' E 140°08'1211.3
2016-Jul-19 20:31N 35°06' E 140°20'1110.5
2016-Jul-19 19:29N 35°14' E 140°29'1010.5
2016-Jul-19 18:33N 35°21' E 140°36'1010.2
2016-Jul-19 17:33N 35°29' E 140°44'25 0.6
2016-Jul-18 00:27N 35°55' E 140°41'3 0.9
2016-Jul-17 21:22N 35°57' E 140°42'4 4.9
2016-Jul-17 20:33N 35°53' E 140°41'0 0.3
2016-Jul-17 19:32N 35°53' E 140°41'0 0.0
2016-Jul-17 18:33N 35°53' E 140°41'0 0.0
2016-Jul-17 17:33N 35°53' E 140°41'0 0.0
2016-Jul-17 16:33N 35°53' E 140°41'0 0.0
2016-Jul-17 15:33N 35°53' E 140°41'0 0.0
2016-Jul-17 14:33N 35°53' E 140°41'0 0.0
2016-Jul-17 13:33N 35°53' E 140°41'0 0.0
2016-Jul-17 12:33N 35°53' E 140°41'0 0.0
2016-Jul-17 11:16N 35°53' E 140°41'0 0.0
2016-Jul-17 10:31N 35°53' E 140°41'0 0.0
2016-Jul-17 09:33N 35°53' E 140°41'0 0.0
2016-Jul-17 08:33N 35°53' E 140°41'0 0.0
2016-Jul-17 07:33N 35°53' E 140°41'0 0.0
2016-Jul-17 06:33N 35°53' E 140°41'0 0.0
2016-Jul-17 04:33N 35°53' E 140°41'0 0.0
2016-Jul-17 03:32N 35°53' E 140°41'0 0.0
2016-Jul-17 02:33N 35°53' E 140°41'0 0.0
2016-Jul-17 01:33N 35°53' E 140°41'0 0.0
2016-Jul-17 00:33N 35°53' E 140°41'0 0.3
2016-Jul-16 23:32N 35°53' E 140°41'5 4.9
2016-Jul-16 22:32N 35°57' E 140°44'0 0.0
2016-Jul-16 21:33N 35°57' E 140°44'0 0.0
2016-Jul-16 20:33N 35°57' E 140°44'0 0.0
2016-Jul-16 19:32N 35°57' E 140°44'0 0.0
2016-Jul-16 18:32N 35°57' E 140°44'5 5.2
2016-Jul-16 17:33N 35°53' E 140°47'1410.7
2016-Jul-16 16:16N 35°40' E 140°54'2111.6
2016-Jul-16 14:26N 35°23' E 140°38'1011.7
2016-Jul-16 13:32N 35°15' E 140°30'1511.7
2016-Jul-16 12:13N 35°04' E 140°18'811.8
2016-Jul-16 11:32N 34°59' E 140°09'1111.6
2016-Jul-16 10:33N 34°53' E 139°57'1211.2
2016-Jul-16 09:29N 34°51' E 139°43'232 8.6
2016-Jul-15 06:33N 34°31' E 135°02'7 6.9
2016-Jul-15 05:33N 34°36' E 134°57'2 0.2
2016-Jul-14 22:33N 34°37' E 134°56'9 8.9
2016-Jul-14 21:33N 34°34' E 135°05'1210.9
2016-Jul-14 20:27N 34°22' E 135°01'910.5
2016-Jul-14 19:33N 34°13' E 134°59'  
Track history (hours):
 
Tides and Currents Weather Stations Pressure Air Temp Water Temp Dewpoint Dewpoint Depression Visibility Wind Speed Wind Dir Waves Ship Positions

Sanpo Maru No.5

Last reported at 2016-Jul-24 02:33 UTC. Time now 2016-Jul-24 02:57 UTC.
Position N 35°31' E 139°59'.

Length 71 m; draft 4.2 m.

Type: Ship. MMSI: 431500283.

Date/timePositionNaut miles runAvg speedWind from/ knotsBaromVisibWave heightAir tempDewpointWater temp
2016-Jul-24 02:33N 35°31' E 139°59'3 2.9
2016-Jul-24 01:33N 35°30' E 140°02'0 0.0
2016-Jul-24 00:33N 35°30' E 140°02'0 0.0
2016-Jul-23 23:33N 35°30' E 140°02'2 2.1
2016-Jul-23 22:33N 35°31' E 139°60'0 0.0
2016-Jul-23 21:33N 35°31' E 139°60'0 0.0
2016-Jul-23 20:33N 35°31' E 139°60'0 0.0
2016-Jul-23 19:34N 35°31' E 139°60'0 0.0
2016-Jul-23 18:34N 35°31' E 139°60'0 0.0
2016-Jul-23 17:34N 35°31' E 139°60'0 0.0
2016-Jul-23 16:34N 35°31' E 139°60'0 0.0
2016-Jul-23 15:27N 35°31' E 139°60'0 0.0
2016-Jul-23 14:33N 35°31' E 139°60'0 0.0
2016-Jul-23 13:33N 35°31' E 139°60'0 0.0
2016-Jul-23 12:15N 35°31' E 139°60'0 0.0
2016-Jul-23 11:33N 35°31' E 139°60'0 0.0
2016-Jul-23 10:33N 35°31' E 139°60'0 0.0
2016-Jul-23 09:33N 35°31' E 139°60'0 0.0
2016-Jul-23 08:33N 35°31' E 139°60'0 0.0
2016-Jul-23 07:33N 35°31' E 139°60'0 0.0
2016-Jul-23 06:33N 35°31' E 139°60'8 4.2
2016-Jul-23 04:34N 35°35' E 139°51'2 2.1
2016-Jul-23 03:33N 35°37' E 139°50'0 0.0
2016-Jul-23 02:33N 35°37' E 139°50'2 2.3
2016-Jul-23 01:33N 35°35' E 139°52'0 0.0
2016-Jul-23 00:29N 35°36' E 139°52'0 0.0
2016-Jul-22 23:32N 35°35' E 139°52'0 0.0
2016-Jul-22 22:26N 35°35' E 139°52'0 0.1
2016-Jul-22 21:32N 35°36' E 139°52'0 0.1
2016-Jul-22 20:32N 35°36' E 139°52'0 0.0
2016-Jul-22 19:23N 35°36' E 139°52'0 0.0
2016-Jul-22 18:29N 35°36' E 139°52'0 0.0
2016-Jul-22 17:32N 35°36' E 139°52'0 0.1
2016-Jul-22 16:29N 35°35' E 139°52'0 0.1
2016-Jul-22 15:29N 35°35' E 139°52'0 0.0
2016-Jul-22 14:26N 35°35' E 139°52'0 0.0
2016-Jul-22 13:26N 35°35' E 139°52'0 0.1
2016-Jul-22 12:32N 35°36' E 139°51'0 0.0
2016-Jul-22 11:29N 35°36' E 139°51'5 5.7
2016-Jul-22 10:33N 35°33' E 139°57'5 4.9
2016-Jul-22 09:33N 35°30' E 140°02'0 0.0
2016-Jul-22 08:33N 35°30' E 140°02'0 0.0
2016-Jul-22 07:33N 35°30' E 140°02'2 1.1
2016-Jul-22 05:33N 35°31' E 139°60'0 0.0
2016-Jul-22 04:33N 35°31' E 139°60'5 5.4
2016-Jul-22 03:33N 35°34' E 139°54'5 4.9
2016-Jul-22 02:33N 35°37' E 139°50'0 0.0
2016-Jul-22 01:33N 35°37' E 139°50'1 0.8
2016-Jul-22 00:33N 35°36' E 139°50'2 1.6
2016-Jul-21 23:32N 35°36' E 139°51'0 0.0
2016-Jul-21 22:32N 35°36' E 139°51'0 0.0
2016-Jul-21 21:32N 35°36' E 139°51'0 0.0
2016-Jul-21 20:32N 35°36' E 139°51'0 0.0
2016-Jul-21 19:32N 35°36' E 139°51'0 0.0
2016-Jul-21 18:32N 35°36' E 139°51'0 0.0
2016-Jul-21 17:32N 35°36' E 139°52'0 0.0
2016-Jul-21 16:32N 35°36' E 139°51'0 0.0
2016-Jul-21 15:32N 35°36' E 139°51'0 0.0
2016-Jul-21 14:29N 35°36' E 139°51'0 0.0
2016-Jul-21 13:32N 35°36' E 139°51'0 0.0
2016-Jul-21 12:32N 35°36' E 139°51'0 0.0
2016-Jul-21 11:32N 35°36' E 139°51'0 0.0
2016-Jul-21 10:32N 35°36' E 139°51'0 0.0
2016-Jul-21 09:32N 35°36' E 139°51'4 4.0
2016-Jul-21 08:34N 35°33' E 139°55'6 6.3
2016-Jul-21 07:33N 35°30' E 140°02'0 0.0
2016-Jul-21 06:33N 35°30' E 140°02'0 0.0
2016-Jul-21 05:33N 35°30' E 140°02'0 0.0
2016-Jul-21 04:33N 35°30' E 140°02'2 1.7
2016-Jul-21 03:33N 35°31' E 140°00'1 1.0
2016-Jul-21 02:28N 35°31' E 139°59'0 0.0
2016-Jul-21 01:28N 35°31' E 139°59'0 0.0
2016-Jul-21 00:28N 35°31' E 139°59'0 0.0
2016-Jul-20 23:28N 35°31' E 139°59'0 0.0
2016-Jul-20 22:28N 35°31' E 139°59'0 0.0
2016-Jul-20 21:28N 35°31' E 139°59'0 0.0
2016-Jul-20 20:28N 35°31' E 139°59'0 0.0
2016-Jul-20 19:28N 35°31' E 139°59'0 0.0
2016-Jul-20 18:28N 35°31' E 139°59'0 0.0
2016-Jul-20 17:28N 35°31' E 139°59'0 0.0
2016-Jul-20 16:28N 35°31' E 139°59'0 0.0
2016-Jul-20 15:16N 35°31' E 139°59'0 0.0
2016-Jul-20 14:28N 35°31' E 139°59'0 0.0
2016-Jul-20 13:28N 35°31' E 139°59'0 0.0
2016-Jul-20 12:28N 35°31' E 139°59'0 0.0
2016-Jul-20 11:28N 35°31' E 139°59'0 0.0
2016-Jul-20 10:22N 35°31' E 139°59'0 0.0
2016-Jul-20 09:22N 35°31' E 139°59'0 0.0
2016-Jul-20 08:28N 35°31' E 139°59'0 0.0
2016-Jul-20 07:28N 35°31' E 139°59'0 0.0
2016-Jul-20 06:33N 35°31' E 139°59'0 0.0
2016-Jul-20 05:33N 35°31' E 139°59'0 0.0
2016-Jul-20 04:32N 35°31' E 139°59'0 0.0
2016-Jul-20 03:32N 35°31' E 139°59'9 9.4
2016-Jul-20 02:33N 35°27' E 139°49'10 9.9
2016-Jul-20 01:33N 35°17' E 139°45'1010.2
2016-Jul-20 00:33N 35°07' E 139°46'1110.9
2016-Jul-19 23:33N 34°56' E 139°45'14 9.7
2016-Jul-19 22:05N 34°55' E 140°02'611.6
2016-Jul-19 21:33N 34°59' E 140°08'1211.3
2016-Jul-19 20:31N 35°06' E 140°20'1110.5
2016-Jul-19 19:29N 35°14' E 140°29'1010.5
2016-Jul-19 18:33N 35°21' E 140°36'1010.2
2016-Jul-19 17:33N 35°29' E 140°44'25 0.6
2016-Jul-18 00:27N 35°55' E 140°41'3 0.9
2016-Jul-17 21:22N 35°57' E 140°42'4 4.9
2016-Jul-17 20:33N 35°53' E 140°41'0 0.3
2016-Jul-17 19:32N 35°53' E 140°41'0 0.0
2016-Jul-17 18:33N 35°53' E 140°41'0 0.0
2016-Jul-17 17:33N 35°53' E 140°41'0 0.0
2016-Jul-17 16:33N 35°53' E 140°41'0 0.0
2016-Jul-17 15:33N 35°53' E 140°41'0 0.0
2016-Jul-17 14:33N 35°53' E 140°41'0 0.0
2016-Jul-17 13:33N 35°53' E 140°41'0 0.0
2016-Jul-17 12:33N 35°53' E 140°41'0 0.0
2016-Jul-17 11:16N 35°53' E 140°41'0 0.0
2016-Jul-17 10:31N 35°53' E 140°41'0 0.0
2016-Jul-17 09:33N 35°53' E 140°41'0 0.0
2016-Jul-17 08:33N 35°53' E 140°41'0 0.0
2016-Jul-17 07:33N 35°53' E 140°41'0 0.0
2016-Jul-17 06:33N 35°53' E 140°41'0 0.0
2016-Jul-17 04:33N 35°53' E 140°41'0 0.0
2016-Jul-17 03:32N 35°53' E 140°41'0 0.0
2016-Jul-17 02:33N 35°53' E 140°41'0 0.0
2016-Jul-17 01:33N 35°53' E 140°41'0 0.0
2016-Jul-17 00:33N 35°53' E 140°41'0 0.3
2016-Jul-16 23:32N 35°53' E 140°41'5 4.9
2016-Jul-16 22:32N 35°57' E 140°44'0 0.0
2016-Jul-16 21:33N 35°57' E 140°44'0 0.0
2016-Jul-16 20:33N 35°57' E 140°44'0 0.0
2016-Jul-16 19:32N 35°57' E 140°44'0 0.0
2016-Jul-16 18:32N 35°57' E 140°44'5 5.2
2016-Jul-16 17:33N 35°53' E 140°47'1410.7
2016-Jul-16 16:16N 35°40' E 140°54'2111.6
2016-Jul-16 14:26N 35°23' E 140°38'1011.7
2016-Jul-16 13:32N 35°15' E 140°30'1511.7
2016-Jul-16 12:13N 35°04' E 140°18'811.8
2016-Jul-16 11:32N 34°59' E 140°09'1111.6
2016-Jul-16 10:33N 34°53' E 139°57'1211.2
2016-Jul-16 09:29N 34°51' E 139°43'232 8.6
2016-Jul-15 06:33N 34°31' E 135°02'7 6.9
2016-Jul-15 05:33N 34°36' E 134°57'2 0.2
2016-Jul-14 22:33N 34°37' E 134°56'9 8.9
2016-Jul-14 21:33N 34°34' E 135°05'1210.9
2016-Jul-14 20:27N 34°22' E 135°01'910.5
2016-Jul-14 19:33N 34°13' E 134°59'  

Dump ship's entire track history